sensor_id;sensor_type;location;lat;lon;timestamp;pressure;altitude;pressure_sealevel;temperature;humidity
6136;BME280;24008;42.664;23.372;2023-05-07T00:01:15;94970.91;;;10.40;86.02
6136;BME280;24008;42.664;23.372;2023-05-07T00:03:41;94970.91;;;10.30;87.03
6136;BME280;24008;42.664;23.372;2023-05-07T00:06:08;94979.53;;;10.20;87.61
6136;BME280;24008;42.664;23.372;2023-05-07T00:08:37;94936.16;;;9.89;89.19
6136;BME280;24008;42.664;23.372;2023-05-07T00:11:04;94981.47;;;10.06;89.33
6136;BME280;24008;42.664;23.372;2023-05-07T00:13:31;94983.63;;;10.01;89.20
6136;BME280;24008;42.664;23.372;2023-05-07T00:16:02;94981.34;;;9.98;90.31
6136;BME280;24008;42.664;23.372;2023-05-07T00:18:28;94928.69;;;9.57;90.58
6136;BME280;24008;42.664;23.372;2023-05-07T00:20:55;94974.31;;;9.91;91.82
6136;BME280;24008;42.664;23.372;2023-05-07T00:23:22;94988.97;;;9.89;91.76
6136;BME280;24008;42.664;23.372;2023-05-07T00:25:49;94952.22;;;9.70;92.07
6136;BME280;24008;42.664;23.372;2023-05-07T00:28:16;94981.00;;;9.82;92.48
6136;BME280;24008;42.664;23.372;2023-05-07T00:30:43;94971.75;;;9.81;91.99
6136;BME280;24008;42.664;23.372;2023-05-07T00:33:11;94951.16;;;9.63;92.51
6136;BME280;24008;42.664;23.372;2023-05-07T00:35:37;94976.84;;;9.81;93.48
6136;BME280;24008;42.664;23.372;2023-05-07T00:38:04;94972.66;;;9.80;93.70
6136;BME280;24008;42.664;23.372;2023-05-07T00:40:31;94937.94;;;9.58;94.15
6136;BME280;24008;42.664;23.372;2023-05-07T00:42:58;94971.34;;;9.86;94.63
6136;BME280;24008;42.664;23.372;2023-05-07T00:45:26;94973.78;;;9.87;94.46
6136;BME280;24008;42.664;23.372;2023-05-07T00:47:54;94978.06;;;9.87;94.80
6136;BME280;24008;42.664;23.372;2023-05-07T00:50:22;94968.94;;;9.84;94.71
6136;BME280;24008;42.664;23.372;2023-05-07T00:52:49;94945.47;;;9.60;94.54
6136;BME280;24008;42.664;23.372;2023-05-07T00:55:16;94966.97;;;9.67;94.62
6136;BME280;24008;42.664;23.372;2023-05-07T00:57:44;94980.44;;;9.79;94.82
6136;BME280;24008;42.664;23.372;2023-05-07T01:00:12;94988.41;;;9.75;95.02
6136;BME280;24008;42.664;23.372;2023-05-07T01:02:39;94986.38;;;9.79;94.63
6136;BME280;24008;42.664;23.372;2023-05-07T01:05:09;94832.44;;;8.79;93.36
6136;BME280;24008;42.664;23.372;2023-05-07T01:07:40;94990.53;;;9.80;90.53
6136;BME280;24008;42.664;23.372;2023-05-07T01:10:09;94863.13;;;9.08;88.97
6136;BME280;24008;42.664;23.372;2023-05-07T01:12:37;94958.94;;;9.62;88.92
6136;BME280;24008;42.664;23.372;2023-05-07T01:15:06;94968.88;;;9.65;89.29
6136;BME280;24008;42.664;23.372;2023-05-07T01:17:34;94973.72;;;9.68;89.00
6136;BME280;24008;42.664;23.372;2023-05-07T01:20:01;94990.13;;;9.75;89.30
6136;BME280;24008;42.664;23.372;2023-05-07T01:22:32;94913.41;;;9.27;90.27
6136;BME280;24008;42.664;23.372;2023-05-07T01:25:00;94992.13;;;9.71;89.80
6136;BME280;24008;42.664;23.372;2023-05-07T01:27:27;94981.38;;;9.68;89.91
6136;BME280;24008;42.664;23.372;2023-05-07T01:29:54;94980.03;;;9.64;90.19
6136;BME280;24008;42.664;23.372;2023-05-07T01:32:25;94991.84;;;9.65;90.54
6136;BME280;24008;42.664;23.372;2023-05-07T01:34:55;94940.31;;;9.41;90.53
6136;BME280;24008;42.664;23.372;2023-05-07T01:37:22;94932.75;;;9.29;90.57
6136;BME280;24008;42.664;23.372;2023-05-07T01:39:52;94943.16;;;9.47;90.33
6136;BME280;24008;42.664;23.372;2023-05-07T01:42:19;94954.50;;;9.64;89.43
6136;BME280;24008;42.664;23.372;2023-05-07T01:44:46;94907.81;;;9.43;90.29
6136;BME280;24008;42.664;23.372;2023-05-07T01:47:13;94965.44;;;9.85;90.06
6136;BME280;24008;42.664;23.372;2023-05-07T01:49:41;94895.75;;;9.45;90.13
6136;BME280;24008;42.664;23.372;2023-05-07T01:52:09;94939.47;;;9.80;90.37
6136;BME280;24008;42.664;23.372;2023-05-07T01:54:36;94963.03;;;9.93;90.31
6136;BME280;24008;42.664;23.372;2023-05-07T01:57:05;94935.06;;;9.82;90.28
6136;BME280;24008;42.664;23.372;2023-05-07T01:59:31;94966.53;;;9.92;91.11
6136;BME280;24008;42.664;23.372;2023-05-07T02:01:58;94939.63;;;9.79;91.08
6136;BME280;24008;42.664;23.372;2023-05-07T02:04:25;94954.72;;;10.01;90.63
6136;BME280;24008;42.664;23.372;2023-05-07T02:06:52;94954.72;;;10.01;90.71
6136;BME280;24008;42.664;23.372;2023-05-07T02:09:19;94949.06;;;9.97;90.90
6136;BME280;24008;42.664;23.372;2023-05-07T02:11:46;94903.59;;;9.72;90.93
6136;BME280;24008;42.664;23.372;2023-05-07T02:14:14;94939.66;;;9.98;91.57
6136;BME280;24008;42.664;23.372;2023-05-07T02:16:41;94936.44;;;9.96;90.83
6136;BME280;24008;42.664;23.372;2023-05-07T02:19:08;94939.13;;;9.94;91.75
6136;BME280;24008;42.664;23.372;2023-05-07T02:21:34;94935.06;;;9.92;91.99
6136;BME280;24008;42.664;23.372;2023-05-07T02:24:01;94846.88;;;9.39;92.26
6136;BME280;24008;42.664;23.372;2023-05-07T02:26:28;94942.88;;;9.90;93.18
6136;BME280;24008;42.664;23.372;2023-05-07T02:28:55;94912.19;;;9.71;92.89
6136;BME280;24008;42.664;23.372;2023-05-07T02:31:23;94941.94;;;9.91;93.70
6136;BME280;24008;42.664;23.372;2023-05-07T02:33:49;94948.94;;;9.89;93.58
6136;BME280;24008;42.664;23.372;2023-05-07T02:36:16;94943.81;;;9.89;93.82
6136;BME280;24008;42.664;23.372;2023-05-07T02:38:43;94942.09;;;9.90;93.99
6136;BME280;24008;42.664;23.372;2023-05-07T02:41:10;94937.91;;;9.89;93.49
6136;BME280;24008;42.664;23.372;2023-05-07T02:43:36;94940.47;;;9.89;93.57
6136;BME280;24008;42.664;23.372;2023-05-07T02:46:04;94942.88;;;9.90;93.45
6136;BME280;24008;42.664;23.372;2023-05-07T02:48:32;94904.41;;;9.63;93.71
6136;BME280;24008;42.664;23.372;2023-05-07T02:51:00;94918.91;;;9.72;94.03
6136;BME280;24008;42.664;23.372;2023-05-07T02:53:27;94939.91;;;9.85;94.35
6136;BME280;24008;42.664;23.372;2023-05-07T02:55:55;94942.59;;;9.84;94.85
6136;BME280;24008;42.664;23.372;2023-05-07T02:58:22;94939.91;;;9.85;95.97
6136;BME280;24008;42.664;23.372;2023-05-07T03:00:49;94937.75;;;9.81;95.21
6136;BME280;24008;42.664;23.372;2023-05-07T03:03:16;94944.88;;;9.77;95.35
6136;BME280;24008;42.664;23.372;2023-05-07T03:05:44;94909.47;;;9.53;95.70
6136;BME280;24008;42.664;23.372;2023-05-07T03:08:11;94927.50;;;9.61;95.77
6136;BME280;24008;42.664;23.372;2023-05-07T03:10:38;94952.09;;;9.72;95.79
6136;BME280;24008;42.664;23.372;2023-05-07T03:13:05;94923.97;;;9.53;95.83
6136;BME280;24008;42.664;23.372;2023-05-07T03:15:32;94951.16;;;9.73;95.73
6136;BME280;24008;42.664;23.372;2023-05-07T03:17:59;94939.56;;;9.59;95.75
6136;BME280;24008;42.664;23.372;2023-05-07T03:20:25;94953.03;;;9.71;96.19
6136;BME280;24008;42.664;23.372;2023-05-07T03:22:53;94965.13;;;9.69;96.25
6136;BME280;24008;42.664;23.372;2023-05-07T03:25:20;94972.66;;;9.70;96.15
6136;BME280;24008;42.664;23.372;2023-05-07T03:28:07;94967.94;;;9.66;95.81
6136;BME280;24008;42.664;23.372;2023-05-07T03:30:34;94931.22;;;9.48;96.30
6136;BME280;24008;42.664;23.372;2023-05-07T03:33:01;94964.88;;;9.72;96.70
6136;BME280;24008;42.664;23.372;2023-05-07T03:35:28;94964.50;;;9.77;96.65
6136;BME280;24008;42.664;23.372;2023-05-07T03:37:56;94924.63;;;9.55;97.35
6136;BME280;24008;42.664;23.372;2023-05-07T03:40:22;94932.47;;;9.63;98.05
6136;BME280;24008;42.664;23.372;2023-05-07T03:42:49;94961.00;;;9.87;97.57
6136;BME280;24008;42.664;23.372;2023-05-07T03:45:19;94971.75;;;9.91;97.55
6136;BME280;24008;42.664;23.372;2023-05-07T03:47:46;94969.50;;;9.97;96.97
6136;BME280;24008;42.664;23.372;2023-05-07T03:50:13;94969.50;;;9.97;97.21
6136;BME280;24008;42.664;23.372;2023-05-07T03:52:39;94946.22;;;9.81;97.44
6136;BME280;24008;42.664;23.372;2023-05-07T03:55:08;94972.19;;;10.05;96.97
6136;BME280;24008;42.664;23.372;2023-05-07T03:57:35;94967.91;;;10.16;97.25
6136;BME280;24008;42.664;23.372;2023-05-07T04:00:02;94959.03;;;10.10;97.82
6136;BME280;24008;42.664;23.372;2023-05-07T04:02:29;94983.44;;;10.24;97.81
6136;BME280;24008;42.664;23.372;2023-05-07T04:04:56;94989.34;;;10.34;96.97
6136;BME280;24008;42.664;23.372;2023-05-07T04:07:23;94992.31;;;10.39;96.68
6136;BME280;24008;42.664;23.372;2023-05-07T04:09:50;94891.66;;;9.82;96.86
6136;BME280;24008;42.664;23.372;2023-05-07T04:12:18;95004.81;;;10.52;96.22
6136;BME280;24008;42.664;23.372;2023-05-07T04:14:45;94989.50;;;10.42;96.74
6136;BME280;24008;42.664;23.372;2023-05-07T04:17:11;95003.75;;;10.54;96.57
6136;BME280;24008;42.664;23.372;2023-05-07T04:19:38;95009.53;;;10.56;95.89
6136;BME280;24008;42.664;23.372;2023-05-07T04:22:05;94985.59;;;10.48;95.50
6136;BME280;24008;42.664;23.372;2023-05-07T04:24:32;95015.47;;;10.66;94.71
6136;BME280;24008;42.664;23.372;2023-05-07T04:26:59;94991.91;;;10.53;93.90
6136;BME280;24008;42.664;23.372;2023-05-07T04:29:27;95027.44;;;10.75;92.68
6136;BME280;24008;42.664;23.372;2023-05-07T04:31:54;95025.03;;;10.83;93.29
6136;BME280;24008;42.664;23.372;2023-05-07T04:34:22;95019.91;;;10.93;93.78
6136;BME280;24008;42.664;23.372;2023-05-07T04:36:48;94997.59;;;10.86;93.06
6136;BME280;24008;42.664;23.372;2023-05-07T04:39:15;95028.06;;;11.26;91.81
6136;BME280;24008;42.664;23.372;2023-05-07T04:41:42;95029.16;;;12.16;90.74
6136;BME280;24008;42.664;23.372;2023-05-07T04:44:09;95037.91;;;13.30;85.97
6136;BME280;24008;42.664;23.372;2023-05-07T04:46:37;95034.59;;;14.31;78.84
6136;BME280;24008;42.664;23.372;2023-05-07T04:49:04;95012.56;;;15.03;73.28
6136;BME280;24008;42.664;23.372;2023-05-07T04:51:31;95008.97;;;15.61;69.40
6136;BME280;24008;42.664;23.372;2023-05-07T04:53:57;95028.41;;;16.27;66.75
6136;BME280;24008;42.664;23.372;2023-05-07T04:56:27;94998.47;;;16.49;63.80
6136;BME280;24008;42.664;23.372;2023-05-07T04:58:54;95031.91;;;17.19;61.14
6136;BME280;24008;42.664;23.372;2023-05-07T05:01:39;95025.66;;;17.51;59.60
6136;BME280;24008;42.664;23.372;2023-05-07T05:04:05;95013.06;;;17.85;58.43
6136;BME280;24008;42.664;23.372;2023-05-07T05:06:32;95030.78;;;18.32;57.35
6136;BME280;24008;42.664;23.372;2023-05-07T05:08:59;94998.13;;;18.82;55.29
6136;BME280;24008;42.664;23.372;2023-05-07T05:11:26;95023.44;;;19.29;54.01
6136;BME280;24008;42.664;23.372;2023-05-07T05:13:53;95007.50;;;19.54;53.01
6136;BME280;24008;42.664;23.372;2023-05-07T05:16:19;95030.41;;;19.50;52.89
6136;BME280;24008;42.664;23.372;2023-05-07T05:18:47;95028.81;;;19.49;52.58
6136;BME280;24008;42.664;23.372;2023-05-07T05:21:14;94982.69;;;19.72;51.56
6136;BME280;24008;42.664;23.372;2023-05-07T05:23:41;95023.47;;;19.85;51.46
6136;BME280;24008;42.664;23.372;2023-05-07T05:26:08;95025.16;;;20.06;50.40
6136;BME280;24008;42.664;23.372;2023-05-07T05:28:35;94999.47;;;20.11;50.83
6136;BME280;24008;42.664;23.372;2023-05-07T05:31:02;95030.44;;;20.19;50.89
6136;BME280;24008;42.664;23.372;2023-05-07T05:33:28;94969.25;;;19.62;51.23
6136;BME280;24008;42.664;23.372;2023-05-07T05:35:57;95029.97;;;20.43;50.42
6136;BME280;24008;42.664;23.372;2023-05-07T05:38:23;95011.13;;;20.96;48.37
6136;BME280;24008;42.664;23.372;2023-05-07T05:40:51;95001.59;;;21.36;47.38
6136;BME280;24008;42.664;23.372;2023-05-07T05:43:17;95037.38;;;21.80;46.79
6136;BME280;24008;42.664;23.372;2023-05-07T05:45:44;95032.19;;;21.67;47.21
6136;BME280;24008;42.664;23.372;2023-05-07T05:48:11;95030.78;;;21.84;46.21
6136;BME280;24008;42.664;23.372;2023-05-07T05:50:38;94861.22;;;20.37;47.91
6136;BME280;24008;42.664;23.372;2023-05-07T05:53:06;95013.34;;;21.98;46.61
6136;BME280;24008;42.664;23.372;2023-05-07T05:55:33;94947.66;;;22.09;45.22
6136;BME280;24008;42.664;23.372;2023-05-07T05:58:00;94989.63;;;22.77;43.42
6136;BME280;24008;42.664;23.372;2023-05-07T06:00:27;95031.06;;;23.48;42.94
6136;BME280;24008;42.664;23.372;2023-05-07T06:02:54;95037.88;;;23.98;41.47
6136;BME280;24008;42.664;23.372;2023-05-07T06:05:21;95035.41;;;24.22;40.62
6136;BME280;24008;42.664;23.372;2023-05-07T06:07:47;95022.75;;;23.82;41.42
6136;BME280;24008;42.664;23.372;2023-05-07T06:10:16;95031.03;;;23.23;43.96
6136;BME280;24008;42.664;23.372;2023-05-07T06:12:43;95044.69;;;23.25;43.93
6136;BME280;24008;42.664;23.372;2023-05-07T06:15:10;95040.25;;;23.25;42.92
6136;BME280;24008;42.664;23.372;2023-05-07T06:17:37;95043.56;;;23.39;43.40
6136;BME280;24008;42.664;23.372;2023-05-07T06:20:05;95031.38;;;23.83;41.87
6136;BME280;24008;42.664;23.372;2023-05-07T06:22:32;94963.44;;;23.46;41.18
6136;BME280;24008;42.664;23.372;2023-05-07T06:24:59;95030.63;;;24.19;40.95
6136;BME280;24008;42.664;23.372;2023-05-07T06:27:28;95030.41;;;24.75;39.94
6136;BME280;24008;42.664;23.372;2023-05-07T06:29:54;95024.88;;;24.65;39.53
6136;BME280;24008;42.664;23.372;2023-05-07T06:32:21;95003.69;;;24.55;38.98
6136;BME280;24008;42.664;23.372;2023-05-07T06:34:48;95004.03;;;25.06;38.35
6136;BME280;24008;42.664;23.372;2023-05-07T06:37:15;95025.56;;;25.08;38.45
6136;BME280;24008;42.664;23.372;2023-05-07T06:39:41;95024.28;;;24.81;40.01
6136;BME280;24008;42.664;23.372;2023-05-07T06:42:08;95007.34;;;24.84;38.96
6136;BME280;24008;42.664;23.372;2023-05-07T06:44:37;94834.47;;;24.09;37.83
6136;BME280;24008;42.664;23.372;2023-05-07T06:47:03;94985.34;;;25.33;37.67
6136;BME280;24008;42.664;23.372;2023-05-07T06:49:30;94991.34;;;25.22;37.67
6136;BME280;24008;42.664;23.372;2023-05-07T06:51:57;94877.09;;;24.92;36.95
6136;BME280;24008;42.664;23.372;2023-05-07T06:54:24;94976.56;;;25.51;37.18
6136;BME280;24008;42.664;23.372;2023-05-07T06:56:51;94983.75;;;25.55;36.71
6136;BME280;24008;42.664;23.372;2023-05-07T06:59:18;94990.53;;;25.09;39.07
6136;BME280;24008;42.664;23.372;2023-05-07T07:01:47;94990.50;;;24.80;39.55
6136;BME280;24008;42.664;23.372;2023-05-07T07:04:13;95004.88;;;25.19;38.09
6136;BME280;24008;42.664;23.372;2023-05-07T07:06:41;94977.78;;;25.25;39.07
6136;BME280;24008;42.664;23.372;2023-05-07T07:09:08;95007.28;;;25.20;37.86
6136;BME280;24008;42.664;23.372;2023-05-07T07:11:35;95007.31;;;24.72;40.10
6136;BME280;24008;42.664;23.372;2023-05-07T07:14:02;95005.03;;;24.27;39.66
6136;BME280;24008;42.664;23.372;2023-05-07T07:16:30;95001.13;;;24.36;38.63
6136;BME280;24008;42.664;23.372;2023-05-07T07:18:58;95002.03;;;24.05;40.20
6136;BME280;24008;42.664;23.372;2023-05-07T07:21:25;94977.53;;;24.06;40.20
6136;BME280;24008;42.664;23.372;2023-05-07T07:23:52;94974.53;;;24.58;40.33
6136;BME280;24008;42.664;23.372;2023-05-07T07:26:19;94967.84;;;24.62;40.54
6136;BME280;24008;42.664;23.372;2023-05-07T07:28:46;94981.13;;;25.32;37.84
6136;BME280;24008;42.664;23.372;2023-05-07T07:31:13;94966.97;;;24.98;38.12
6136;BME280;24008;42.664;23.372;2023-05-07T07:33:40;94972.03;;;25.34;37.17
6136;BME280;24008;42.664;23.372;2023-05-07T07:36:09;94992.84;;;25.41;37.43
6136;BME280;24008;42.664;23.372;2023-05-07T07:38:36;94932.50;;;25.12;37.97
6136;BME280;24008;42.664;23.372;2023-05-07T07:41:03;94999.94;;;25.75;36.98
6136;BME280;24008;42.664;23.372;2023-05-07T07:43:30;95005.53;;;25.79;38.42
6136;BME280;24008;42.664;23.372;2023-05-07T07:45:56;95003.19;;;26.41;37.15
6136;BME280;24008;42.664;23.372;2023-05-07T07:48:23;95008.47;;;26.58;35.45
6136;BME280;24008;42.664;23.372;2023-05-07T07:50:50;94995.84;;;26.83;35.12
6136;BME280;24008;42.664;23.372;2023-05-07T07:53:18;95006.63;;;26.70;35.10
6136;BME280;24008;42.664;23.372;2023-05-07T07:55:46;94916.31;;;26.09;35.08
6136;BME280;24008;42.664;23.372;2023-05-07T07:58:13;95010.00;;;26.82;34.80
6136;BME280;24008;42.664;23.372;2023-05-07T08:00:40;95010.06;;;26.30;35.37
6136;BME280;24008;42.664;23.372;2023-05-07T08:03:09;95001.28;;;26.65;35.08
6136;BME280;24008;42.664;23.372;2023-05-07T08:05:36;94999.94;;;26.62;35.11
6136;BME280;24008;42.664;23.372;2023-05-07T08:08:04;94947.44;;;26.45;37.14
6136;BME280;24008;42.664;23.372;2023-05-07T08:10:33;94971.84;;;26.74;36.83
6136;BME280;24008;42.664;23.372;2023-05-07T08:13:03;94998.97;;;26.80;35.06
6136;BME280;24008;42.664;23.372;2023-05-07T08:15:31;94999.13;;;27.02;34.74
6136;BME280;24008;42.664;23.372;2023-05-07T08:17:58;94910.25;;;26.77;33.64
6136;BME280;24008;42.664;23.372;2023-05-07T08:20:25;94977.97;;;27.42;34.02
6136;BME280;24008;42.664;23.372;2023-05-07T08:22:52;94948.56;;;26.78;34.84
6136;BME280;24008;42.664;23.372;2023-05-07T08:25:19;94979.28;;;26.66;35.15
6136;BME280;24008;42.664;23.372;2023-05-07T08:27:47;94996.97;;;26.87;35.15
6136;BME280;24008;42.664;23.372;2023-05-07T08:30:15;95000.28;;;26.66;35.66
6136;BME280;24008;42.664;23.372;2023-05-07T08:32:42;94995.00;;;27.39;33.51
6136;BME280;24008;42.664;23.372;2023-05-07T08:35:09;94918.66;;;27.41;32.89
6136;BME280;24008;42.664;23.372;2023-05-07T08:37:36;94963.50;;;27.73;32.02
6136;BME280;24008;42.664;23.372;2023-05-07T08:40:03;94990.22;;;27.86;31.83
6136;BME280;24008;42.664;23.372;2023-05-07T08:42:31;94993.25;;;27.28;33.60
6136;BME280;24008;42.664;23.372;2023-05-07T08:45:04;94943.22;;;26.73;34.07
6136;BME280;24008;42.664;23.372;2023-05-07T08:47:40;94973.84;;;27.46;32.43
6136;BME280;24008;42.664;23.372;2023-05-07T08:50:09;94988.44;;;27.92;31.90
6136;BME280;24008;42.664;23.372;2023-05-07T08:52:36;94979.63;;;27.81;32.21
6136;BME280;24008;42.664;23.372;2023-05-07T08:55:04;94979.91;;;28.02;33.05
6136;BME280;24008;42.664;23.372;2023-05-07T08:57:31;94974.16;;;27.66;32.65
6136;BME280;24008;42.664;23.372;2023-05-07T08:59:58;94968.78;;;28.33;31.12
6136;BME280;24008;42.664;23.372;2023-05-07T09:02:26;94966.47;;;28.63;30.29
6136;BME280;24008;42.664;23.372;2023-05-07T09:04:53;94960.66;;;28.35;31.36
6136;BME280;24008;42.664;23.372;2023-05-07T09:07:21;94963.69;;;28.48;30.78
6136;BME280;24008;42.664;23.372;2023-05-07T09:09:48;94936.69;;;28.80;29.46
6136;BME280;24008;42.664;23.372;2023-05-07T09:12:15;94953.03;;;29.14;29.17
6136;BME280;24008;42.664;23.372;2023-05-07T09:14:43;94943.91;;;29.26;28.85
6136;BME280;24008;42.664;23.372;2023-05-07T09:17:09;94943.09;;;29.21;28.46
6136;BME280;24008;42.664;23.372;2023-05-07T09:19:38;94957.31;;;29.20;26.36
6136;BME280;24008;42.664;23.372;2023-05-07T09:22:05;94941.69;;;29.08;27.08
6136;BME280;24008;42.664;23.372;2023-05-07T09:24:33;94961.56;;;29.26;27.32
6136;BME280;24008;42.664;23.372;2023-05-07T09:27:03;94951.31;;;28.71;28.11
6136;BME280;24008;42.664;23.372;2023-05-07T09:29:30;94954.22;;;28.96;28.38
6136;BME280;24008;42.664;23.372;2023-05-07T09:32:00;94926.84;;;28.97;27.81
6136;BME280;24008;42.664;23.372;2023-05-07T09:34:28;94924.00;;;27.84;29.62
6136;BME280;24008;42.664;23.372;2023-05-07T09:36:58;94944.09;;;27.57;29.81
6136;BME280;24008;42.664;23.372;2023-05-07T09:39:25;94933.72;;;28.06;30.01
6136;BME280;24008;42.664;23.372;2023-05-07T09:41:52;94939.00;;;28.49;30.37
6136;BME280;24008;42.664;23.372;2023-05-07T09:44:20;94932.25;;;28.58;30.04
6136;BME280;24008;42.664;23.372;2023-05-07T09:46:52;94936.38;;;28.49;29.51
6136;BME280;24008;42.664;23.372;2023-05-07T09:49:23;94901.25;;;28.39;30.13
6136;BME280;24008;42.664;23.372;2023-05-07T09:51:51;94921.66;;;28.53;30.45
6136;BME280;24008;42.664;23.372;2023-05-07T09:54:19;94888.84;;;27.90;29.19
6136;BME280;24008;42.664;23.372;2023-05-07T09:56:50;94926.81;;;28.00;29.17
6136;BME280;24008;42.664;23.372;2023-05-07T09:59:18;94826.00;;;27.23;32.35
6136;BME280;24008;42.664;23.372;2023-05-07T10:01:47;94897.25;;;27.87;29.61
6136;BME280;24008;42.664;23.372;2023-05-07T10:04:15;94918.13;;;27.77;29.42
6136;BME280;24008;42.664;23.372;2023-05-07T10:06:43;94919.13;;;27.21;30.74
6136;BME280;24008;42.664;23.372;2023-05-07T10:09:11;94923.41;;;27.10;30.59
6136;BME280;24008;42.664;23.372;2023-05-07T10:11:40;94914.44;;;27.06;29.83
6136;BME280;24008;42.664;23.372;2023-05-07T10:14:07;94921.72;;;26.87;29.38
6136;BME280;24008;42.664;23.372;2023-05-07T10:16:36;94909.97;;;27.07;28.76
6136;BME280;24008;42.664;23.372;2023-05-07T10:19:03;94895.75;;;27.19;29.29
6136;BME280;24008;42.664;23.372;2023-05-07T10:21:30;94907.50;;;27.34;28.75
6136;BME280;24008;42.664;23.372;2023-05-07T10:24:04;94856.66;;;27.01;29.00
6136;BME280;24008;42.664;23.372;2023-05-07T10:26:35;94881.84;;;26.40;30.04
6136;BME280;24008;42.664;23.372;2023-05-07T10:29:05;94889.31;;;26.48;31.64
6136;BME280;24008;42.664;23.372;2023-05-07T10:31:54;94878.72;;;26.15;31.31
6136;BME280;24008;42.664;23.372;2023-05-07T10:34:23;94888.09;;;26.68;31.14
6136;BME280;24008;42.664;23.372;2023-05-07T10:36:52;94871.03;;;26.99;28.81
6136;BME280;24008;42.664;23.372;2023-05-07T10:39:23;94886.03;;;27.37;29.00
6136;BME280;24008;42.664;23.372;2023-05-07T10:41:50;94864.19;;;27.14;28.79
6136;BME280;24008;42.664;23.372;2023-05-07T10:44:29;94854.50;;;26.98;30.26
6136;BME280;24008;42.664;23.372;2023-05-07T10:47:07;94883.16;;;27.38;30.22
6136;BME280;24008;42.664;23.372;2023-05-07T10:49:35;94884.53;;;27.07;30.04
6136;BME280;24008;42.664;23.372;2023-05-07T10:52:13;94865.25;;;26.51;30.17
6136;BME280;24008;42.664;23.372;2023-05-07T10:54:41;94815.94;;;26.20;30.76
6136;BME280;24008;42.664;23.372;2023-05-07T10:57:33;94879.78;;;26.59;30.43
6136;BME280;24008;42.664;23.372;2023-05-07T11:00:02;94876.38;;;26.59;30.17
6136;BME280;24008;42.664;23.372;2023-05-07T11:05:31;94855.28;;;26.37;31.07
6136;BME280;24008;42.664;23.372;2023-05-07T11:07:59;94874.00;;;25.89;29.99
6136;BME280;24008;42.664;23.372;2023-05-07T11:10:47;94873.59;;;25.45;29.45
6136;BME280;24008;42.664;23.372;2023-05-07T11:13:14;94826.41;;;24.93;31.00
6136;BME280;24008;42.664;23.372;2023-05-07T11:15:44;94880.91;;;25.20;30.28
6136;BME280;24008;42.664;23.372;2023-05-07T11:18:15;94806.59;;;24.62;30.27
6136;BME280;24008;42.664;23.372;2023-05-07T11:20:59;94863.44;;;24.78;32.54
6136;BME280;24008;42.664;23.372;2023-05-07T11:23:55;94866.47;;;24.64;31.05
6136;BME280;24008;42.664;23.372;2023-05-07T11:26:23;94807.72;;;24.13;31.03
6136;BME280;24008;42.664;23.372;2023-05-07T11:28:51;94830.41;;;24.13;32.38
6136;BME280;24008;42.664;23.372;2023-05-07T11:31:23;94864.81;;;24.39;32.20
6136;BME280;24008;42.664;23.372;2023-05-07T11:33:51;94859.53;;;24.58;31.70
6136;BME280;24008;42.664;23.372;2023-05-07T11:36:19;94840.41;;;24.46;32.55
6136;BME280;24008;42.664;23.372;2023-05-07T11:38:46;94799.06;;;24.42;32.43
6136;BME280;24008;42.664;23.372;2023-05-07T11:41:13;94863.03;;;24.93;32.47
6136;BME280;24008;42.664;23.372;2023-05-07T11:43:54;94849.34;;;24.80;30.84
6136;BME280;24008;42.664;23.372;2023-05-07T11:46:22;94850.47;;;24.72;30.32
6136;BME280;24008;42.664;23.372;2023-05-07T11:48:49;94847.41;;;24.75;30.70
6136;BME280;24008;42.664;23.372;2023-05-07T11:51:21;94849.53;;;24.66;30.15
6136;BME280;24008;42.664;23.372;2023-05-07T11:53:50;94846.25;;;24.71;31.61
6136;BME280;24008;42.664;23.372;2023-05-07T11:56:18;94829.44;;;24.78;31.04
6136;BME280;24008;42.664;23.372;2023-05-07T11:58:46;94854.50;;;25.09;32.64
6136;BME280;24008;42.664;23.372;2023-05-07T12:01:15;94848.13;;;25.05;31.47
6136;BME280;24008;42.664;23.372;2023-05-07T12:03:45;94843.13;;;25.16;30.75
6136;BME280;24008;42.664;23.372;2023-05-07T12:06:15;94834.47;;;25.27;32.58
6136;BME280;24008;42.664;23.372;2023-05-07T12:08:43;94815.84;;;25.11;31.92
6136;BME280;24008;42.664;23.372;2023-05-07T12:11:14;94740.78;;;24.54;31.74
6136;BME280;24008;42.664;23.372;2023-05-07T12:13:43;94827.19;;;24.82;31.43
6136;BME280;24008;42.664;23.372;2023-05-07T12:16:10;94825.47;;;24.88;32.78
6136;BME280;24008;42.664;23.372;2023-05-07T12:18:37;94807.41;;;24.74;31.96
6136;BME280;24008;42.664;23.372;2023-05-07T12:21:06;94823.06;;;24.51;31.97
6136;BME280;24008;42.664;23.372;2023-05-07T12:23:34;94825.94;;;24.31;32.68
6136;BME280;24008;42.664;23.372;2023-05-07T12:26:02;94822.75;;;24.29;33.47
6136;BME280;24008;42.664;23.372;2023-05-07T12:28:29;94818.91;;;24.32;31.61
6136;BME280;24008;42.664;23.372;2023-05-07T12:30:57;94802.00;;;24.16;32.40
6136;BME280;24008;42.664;23.372;2023-05-07T12:33:25;94806.59;;;24.21;31.12
6136;BME280;24008;42.664;23.372;2023-05-07T12:35:55;94802.91;;;24.10;31.19
6136;BME280;24008;42.664;23.372;2023-05-07T12:38:23;94799.47;;;23.98;30.83
6136;BME280;24008;42.664;23.372;2023-05-07T12:40:54;94797.50;;;23.93;30.72
6136;BME280;24008;42.664;23.372;2023-05-07T12:43:23;94708.84;;;23.27;30.98
6136;BME280;24008;42.664;23.372;2023-05-07T12:45:54;94771.28;;;23.40;31.06
6136;BME280;24008;42.664;23.372;2023-05-07T12:48:21;94753.91;;;23.16;30.88
6136;BME280;24008;42.664;23.372;2023-05-07T12:50:49;94783.84;;;23.43;31.26
6136;BME280;24008;42.664;23.372;2023-05-07T12:53:16;94783.31;;;23.59;31.51
6136;BME280;24008;42.664;23.372;2023-05-07T12:55:46;94777.06;;;23.79;32.20
6136;BME280;24008;42.664;23.372;2023-05-07T12:58:17;94781.22;;;23.80;31.67
6136;BME280;24008;42.664;23.372;2023-05-07T13:00:45;94750.53;;;23.63;30.04
6136;BME280;24008;42.664;23.372;2023-05-07T13:03:21;94780.47;;;23.61;29.31
6136;BME280;24008;42.664;23.372;2023-05-07T13:05:48;94720.44;;;23.13;29.22
6136;BME280;24008;42.664;23.372;2023-05-07T13:08:23;94766.34;;;23.50;28.98
6136;BME280;24008;42.664;23.372;2023-05-07T13:10:52;94774.88;;;23.57;28.87